createdAt,value
2018-09-19T00:01:37.293Z,100266.69
2018-09-19T00:04:06.059Z,100255.47
2018-09-19T00:06:34.857Z,100254.59
2018-09-19T00:09:04.876Z,100251.56
2018-09-19T00:11:33.623Z,100253.77
2018-09-19T00:14:02.645Z,100247.17
2018-09-19T00:16:31.433Z,100247.17
2018-09-19T00:19:00.187Z,100250.72
2018-09-19T00:21:28.988Z,100252.55
2018-09-19T00:23:57.773Z,100253.03
2018-09-19T00:26:26.590Z,100254.37
2018-09-19T00:28:55.376Z,100254.75
2018-09-19T00:31:24.267Z,100255.23
2018-09-19T00:33:53.249Z,100251.20
2018-09-19T00:36:22.005Z,100254.26
2018-09-19T00:38:50.771Z,100258.78
2018-09-19T00:41:19.567Z,100259.14
2018-09-19T00:43:48.331Z,100260.48
2018-09-19T00:46:17.111Z,100248.88
2018-09-19T00:48:45.988Z,100244.84
2018-09-19T00:51:15.333Z,100245.18
2018-09-19T00:53:44.320Z,100243.01
2018-09-19T00:56:13.064Z,100247.05
2018-09-19T00:58:41.902Z,100254.13
2018-09-19T01:01:10.702Z,100252.78
2018-09-19T01:03:39.496Z,100251.44
2018-09-19T01:06:08.237Z,100254.59
2018-09-19T01:08:36.999Z,100254.13
2018-09-19T01:11:05.859Z,100248.75
2018-09-19T01:13:34.688Z,100245.58
2018-09-19T01:16:03.675Z,100252.30
2018-09-19T01:18:32.415Z,100239.80
2018-09-19T01:21:01.233Z,100250.09
2018-09-19T01:23:29.968Z,100252.30
2018-09-19T01:25:58.749Z,100249.61
2018-09-19T01:28:27.571Z,100253.64
2018-09-19T01:30:56.375Z,100256.45
2018-09-19T01:33:25.215Z,100255.47
2018-09-19T01:35:54.011Z,100265.34
2018-09-19T01:38:22.777Z,100263.18
2018-09-19T01:40:51.568Z,100263.18
2018-09-19T01:43:20.335Z,100253.77
2018-09-19T01:45:49.172Z,100248.88
2018-09-19T01:48:18.156Z,100248.88
2018-09-19T01:50:46.938Z,100245.34
2018-09-19T01:53:15.695Z,100241.30
2018-09-19T01:55:44.689Z,100242.80
2018-09-19T01:58:13.453Z,100237.91
2018-09-19T02:00:42.360Z,100240.11
2018-09-19T02:03:11.092Z,100245.49
2018-09-19T02:05:39.848Z,100230.34
2018-09-19T02:08:08.717Z,100234.38
2018-09-19T02:10:37.778Z,100241.09
2018-09-19T02:13:06.529Z,100245.13
2018-09-19T02:15:35.422Z,100244.27
2018-09-19T02:18:04.429Z,100250.50
2018-09-19T02:20:33.266Z,100241.25
2018-09-19T02:23:02.595Z,100246.27
2018-09-19T02:25:31.361Z,100242.59
2018-09-19T02:28:00.117Z,100253.34
2018-09-19T02:30:28.882Z,100247.12
2018-09-19T02:32:57.696Z,100247.12
2018-09-19T02:35:26.476Z,100242.23
2018-09-19T02:37:55.235Z,100230.98
2018-09-19T02:40:24.023Z,100229.77
2018-09-19T02:42:52.770Z,100229.64
2018-09-19T02:45:21.547Z,100224.27
2018-09-19T02:47:50.317Z,100227.44
2018-09-19T02:50:19.043Z,100229.27
2018-09-19T02:52:53.092Z,100226.59
2018-09-19T02:55:22.066Z,100228.30
2018-09-19T02:57:50.917Z,100224.27
2018-09-19T03:00:19.694Z,100226.95
2018-09-19T03:02:48.566Z,100228.62
2018-09-19T03:05:17.336Z,100224.11
2018-09-19T03:07:46.090Z,100215.70
2018-09-19T03:10:14.857Z,100214.20
2018-09-19T03:12:43.678Z,100210.17
2018-09-19T03:15:12.429Z,100203.81
2018-09-19T03:17:41.303Z,100217.59
2018-09-19T03:20:09.997Z,100203.81
2018-09-19T03:22:38.815Z,100206.84
2018-09-19T03:25:07.672Z,100208.05
2018-09-19T03:27:36.479Z,100203.17
2018-09-19T03:30:05.687Z,100200.48
2018-09-19T03:32:34.492Z,100202.16
2018-09-19T03:35:04.134Z,100199.86
2018-09-19T03:37:32.924Z,100195.34
2018-09-19T03:40:01.695Z,100199.01
2018-09-19T03:42:30.479Z,100190.81
2018-09-19T03:44:59.258Z,100188.12
2018-09-19T03:47:28.035Z,100188.98
2018-09-19T03:49:56.791Z,100193.51
2018-09-19T03:52:25.662Z,100195.18
2018-09-19T03:54:54.402Z,100203.13
2018-09-19T03:57:23.162Z,100199.09
2018-09-19T03:59:51.979Z,100194.20
2018-09-19T04:02:20.826Z,100194.56
2018-09-19T04:04:49.660Z,100197.74
2018-09-19T04:07:18.495Z,100188.83
2018-09-19T04:09:47.274Z,100190.17
2018-09-19T04:12:16.013Z,100195.05
2018-09-19T04:14:44.789Z,100196.41
2018-09-19T04:17:13.533Z,100201.78
2018-09-19T04:19:42.333Z,100199.09
2018-09-19T04:22:11.101Z,100197.74
2018-09-19T04:24:39.858Z,100197.26
2018-09-19T04:27:08.622Z,100203.98
2018-09-19T04:29:37.367Z,100212.05
2018-09-19T04:32:06.264Z,100215.22
2018-09-19T04:34:35.005Z,100216.08
2018-09-19T04:37:04.143Z,100221.09
2018-09-19T04:39:33.366Z,100219.25
2018-09-19T04:42:02.136Z,100221.95
2018-09-19T04:44:30.877Z,100227.33
2018-09-19T04:46:59.696Z,100219.59
2018-09-19T04:49:28.434Z,100223.30
2018-09-19T04:51:57.210Z,100219.75
2018-09-19T04:54:26.017Z,100225.48
2018-09-19T04:56:54.833Z,100222.80
2018-09-19T04:59:23.650Z,100217.91
2018-09-19T05:01:52.506Z,100227.33
2018-09-19T05:04:21.260Z,100218.41
2018-09-19T05:06:50.203Z,100219.59
2018-09-19T05:09:18.938Z,100228.17
2018-09-19T05:11:47.756Z,100232.70
2018-09-19T05:14:16.530Z,100233.55
2018-09-19T05:16:45.312Z,100232.21
2018-09-19T05:19:14.090Z,100237.92
2018-09-19T05:21:42.840Z,100231.69
2018-09-19T05:24:11.591Z,100235.72
2018-09-19T05:26:40.391Z,100235.23
2018-09-19T05:29:09.176Z,100237.59
2018-09-19T05:31:38.063Z,100236.58
2018-09-19T05:34:06.948Z,100238.41
2018-09-19T05:36:35.762Z,100243.67
2018-09-19T05:39:06.110Z,100241.83
2018-09-19T05:41:34.946Z,100242.66
2018-09-19T05:44:03.700Z,100240.82
2018-09-19T05:46:32.556Z,100232.95
2018-09-19T05:49:01.360Z,100240.91
2018-09-19T05:51:30.168Z,100242.58
2018-09-19T05:53:59.185Z,100247.31
2018-09-19T05:56:27.950Z,100247.18
2018-09-19T05:58:56.778Z,100249.38
2018-09-19T06:01:25.556Z,100250.56
2018-09-19T06:03:54.528Z,100244.70
2018-09-19T06:06:23.309Z,100245.39
2018-09-19T06:08:52.090Z,100253.34
2018-09-19T06:11:20.910Z,100255.88
2018-09-19T06:13:49.776Z,100263.45
2018-09-19T06:16:18.595Z,100256.23
2018-09-19T06:18:47.357Z,100255.22
2018-09-19T06:21:16.166Z,100252.41
2018-09-19T06:23:45.045Z,100255.43
2018-09-19T06:26:13.876Z,100254.94
2018-09-19T06:28:42.970Z,100259.83
2018-09-19T06:31:12.072Z,100261.50
2018-09-19T06:33:41.070Z,100274.47
2018-09-19T06:36:10.221Z,100276.30
2018-09-19T06:38:38.968Z,100283.39
2018-09-19T06:41:08.022Z,100274.47
2018-09-19T06:43:37.198Z,100276.66
2018-09-19T06:46:06.323Z,100276.30
2018-09-19T06:48:35.163Z,100282.05
2018-09-19T06:51:04.245Z,100274.47
2018-09-19T06:53:33.019Z,100292.31
2018-09-19T06:56:01.908Z,100290.48
2018-09-19T06:58:30.699Z,100305.77
2018-09-19T07:00:59.441Z,100303.57
2018-09-19T07:03:28.273Z,100309.80
2018-09-19T07:05:57.213Z,100305.41
2018-09-19T07:08:25.960Z,100318.00
2018-09-19T07:10:54.754Z,100314.33
2018-09-19T07:13:23.565Z,100315.63
2018-09-19T07:15:52.322Z,100320.69
2018-09-19T07:18:21.078Z,100330.11
2018-09-19T07:20:49.852Z,100328.77
2018-09-19T07:23:18.662Z,100328.77
2018-09-19T07:25:47.438Z,100337.69
2018-09-19T07:28:16.261Z,100340.53
2018-09-19T07:30:45.071Z,100351.30
2018-09-19T07:33:13.877Z,100346.41
2018-09-19T07:35:42.633Z,100345.06
2018-09-19T07:38:11.393Z,100342.86
2018-09-19T07:40:40.168Z,100353.13
2018-09-19T07:43:08.904Z,100347.38
2018-09-19T07:45:37.654Z,100347.75
2018-09-19T07:48:06.892Z,100347.38
2018-09-19T07:50:35.894Z,100353.28
2018-09-19T07:53:05.234Z,100356.31
2018-09-19T07:55:34.854Z,100349.59
2018-09-19T07:58:03.743Z,100348.23
2018-09-19T08:00:32.702Z,100347.26
2018-09-19T08:03:01.465Z,100347.26
2018-09-19T08:05:30.735Z,100346.77
2018-09-19T08:07:59.473Z,100347.26
2018-09-19T08:10:28.361Z,100344.08
2018-09-19T08:12:57.457Z,100343.07
2018-09-19T08:15:26.595Z,100339.89
2018-09-19T08:17:55.803Z,100341.59
2018-09-19T08:20:24.699Z,100336.06
2018-09-19T08:22:53.846Z,100337.77
2018-09-19T08:25:22.826Z,100342.66
2018-09-19T08:27:51.828Z,100341.65
2018-09-19T08:30:20.825Z,100343.85
2018-09-19T08:32:49.868Z,100348.25
2018-09-19T08:35:18.680Z,100352.98
2018-09-19T08:37:47.793Z,100358.70
2018-09-19T08:40:16.762Z,100354.54
2018-09-19T08:42:45.629Z,100358.58
2018-09-19T08:45:14.574Z,100350.50
2018-09-19T08:47:43.707Z,100359.77
2018-09-19T08:50:12.776Z,100356.58
2018-09-19T08:52:41.828Z,100350.83
2018-09-19T08:55:10.918Z,100359.64
2018-09-19T08:57:40.010Z,100356.09
2018-09-19T09:00:09.534Z,100356.42
2018-09-19T09:02:38.754Z,100352.91
2018-09-19T09:05:08.230Z,100352.05
2018-09-19T09:07:37.007Z,100357.93
2018-09-19T09:10:06.161Z,100366.00
2018-09-19T09:12:35.010Z,100370.41
2018-09-19T09:15:04.142Z,100364.66
2018-09-19T09:17:32.993Z,100371.38
2018-09-19T09:20:02.167Z,100373.58
2018-09-19T09:22:30.883Z,100370.53
2018-09-19T09:24:59.675Z,100362.61
2018-09-19T09:27:28.513Z,100367.50
2018-09-19T09:29:57.310Z,100367.14
2018-09-19T09:32:26.034Z,100367.99
2018-09-19T09:34:54.888Z,100367.14
2018-09-19T09:37:24.164Z,100358.21
2018-09-19T09:39:52.989Z,100369.47
2018-09-19T09:42:21.801Z,100369.13
2018-09-19T09:44:50.662Z,100371.33
2018-09-19T09:47:19.511Z,100374.64
2018-09-19T09:49:48.650Z,100374.30
2018-09-19T09:52:17.456Z,100367.21
2018-09-19T09:54:46.266Z,100372.10
2018-09-19T09:57:15.095Z,100369.56
2018-09-19T09:59:43.818Z,100376.78
2018-09-19T10:02:12.612Z,100381.16
2018-09-19T10:04:41.396Z,100379.97
2018-09-19T10:07:10.213Z,100382.16
2018-09-19T10:09:39.124Z,100385.84
2018-09-19T10:12:07.907Z,100380.61
2018-09-19T10:14:36.655Z,100374.86
2018-09-19T10:17:05.573Z,100379.75
2018-09-19T10:19:34.444Z,100381.59
2018-09-19T10:22:03.295Z,100377.06
2018-09-19T10:24:32.090Z,100389.17
2018-09-19T10:27:00.893Z,100394.92
2018-09-19T10:29:29.631Z,100387.83
2018-09-19T10:31:58.717Z,100391.00
2018-09-19T10:34:27.667Z,100388.80
2018-09-19T10:36:56.493Z,100393.20
2018-09-19T10:39:25.244Z,100400.42
2018-09-19T10:41:54.080Z,100401.77
2018-09-19T10:44:23.177Z,100399.08
2018-09-19T10:46:52.067Z,100399.56
2018-09-19T10:49:20.869Z,100405.80
2018-09-19T10:51:49.677Z,100409.84
2018-09-19T10:54:18.506Z,100402.74
2018-09-19T10:56:47.344Z,100399.56
2018-09-19T10:59:16.088Z,100404.45
2018-09-19T11:01:44.893Z,100404.95
2018-09-19T11:04:13.853Z,100405.31
2018-09-19T11:06:42.629Z,100398.70
2018-09-19T11:09:12.405Z,100413.02
2018-09-19T11:11:41.149Z,100416.20
2018-09-19T11:14:09.886Z,100412.53
2018-09-19T11:16:38.647Z,100421.58
2018-09-19T11:19:07.445Z,100422.44
2018-09-19T11:21:36.192Z,100419.74
2018-09-19T11:24:05.287Z,100425.12
2018-09-19T11:26:34.121Z,100433.20
2018-09-19T11:29:03.027Z,100436.38
2018-09-19T11:31:31.806Z,100439.59
2018-09-19T11:34:00.937Z,100433.34
2018-09-19T11:36:29.897Z,100426.63
2018-09-19T11:38:58.642Z,100430.30
2018-09-19T11:41:27.444Z,100434.70
2018-09-19T11:43:56.582Z,100434.33
2018-09-19T11:46:25.487Z,100441.05
2018-09-19T11:48:54.298Z,100444.75
2018-09-19T11:51:23.039Z,100451.48
2018-09-19T11:53:51.953Z,100456.98
2018-09-19T11:56:20.744Z,100448.42
2018-09-19T11:58:49.574Z,100468.23
2018-09-19T12:01:18.343Z,100447.23
2018-09-19T12:03:47.109Z,100459.83
2018-09-19T12:06:15.894Z,100462.85
2018-09-19T12:08:44.684Z,100446.01
2018-09-19T12:11:13.489Z,100455.79
2018-09-19T12:13:42.214Z,100463.86
2018-09-19T12:16:11.879Z,100475.59
2018-09-19T12:18:40.631Z,100472.91
2018-09-19T12:21:09.388Z,100464.50
2018-09-19T12:23:38.161Z,100475.59
2018-09-19T12:26:07.179Z,100481.13
2018-09-19T12:28:35.939Z,100489.20
2018-09-19T12:31:05.220Z,100483.45
2018-09-19T12:33:34.277Z,100492.88
2018-09-19T12:36:03.327Z,100495.92
2018-09-19T12:38:32.156Z,100492.02
2018-09-19T12:41:00.927Z,100490.17
2018-09-19T12:43:29.742Z,100486.52
2018-09-19T12:45:58.544Z,100474.04
2018-09-19T12:48:27.334Z,100500.94
2018-09-19T12:50:56.106Z,100496.41
2018-09-19T12:53:25.386Z,100492.53
2018-09-19T12:55:55.062Z,100502.28
2018-09-19T12:58:23.873Z,100501.80
2018-09-19T13:00:53.103Z,100504.33
2018-09-19T13:03:21.990Z,100504.97
2018-09-19T13:05:50.870Z,100516.10
2018-09-19T13:08:19.619Z,100509.23
2018-09-19T13:10:48.431Z,100515.61
2018-09-19T13:13:17.273Z,100517.45
2018-09-19T13:15:46.069Z,100512.41
2018-09-19T13:18:14.878Z,100515.09
2018-09-19T13:20:43.818Z,100511.06
2018-09-19T13:23:12.600Z,100508.89
2018-09-19T13:25:41.378Z,100510.56
2018-09-19T13:28:10.213Z,100509.23
2018-09-19T13:30:39.070Z,100511.06
2018-09-19T13:33:07.895Z,100515.95
2018-09-19T13:35:36.761Z,100519.01
2018-09-19T13:38:06.058Z,100523.90
2018-09-19T13:40:34.908Z,100522.56
2018-09-19T13:43:04.383Z,100524.02
2018-09-19T13:45:33.440Z,100535.16
2018-09-19T13:48:03.334Z,100518.00
2018-09-19T13:50:43.934Z,100510.94
2018-09-19T13:53:13.014Z,100516.31
2018-09-19T13:55:41.860Z,100516.81
2018-09-19T13:58:10.626Z,100517.66
2018-09-19T14:00:39.440Z,100527.08
2018-09-19T14:03:08.215Z,100515.95
2018-09-19T14:05:37.122Z,100524.51
2018-09-19T14:08:05.970Z,100517.30
2018-09-19T14:10:34.820Z,100518.64
2018-09-19T14:13:04.321Z,100516.59
2018-09-19T14:15:33.520Z,100525.03
2018-09-19T14:18:02.297Z,100521.48
2018-09-19T14:20:31.098Z,100529.55
2018-09-19T14:22:59.861Z,100526.49
2018-09-19T14:25:28.701Z,100529.19
2018-09-19T14:27:57.653Z,100534.08
2018-09-19T14:30:26.451Z,100529.19
2018-09-19T14:32:55.345Z,100535.91
2018-09-19T14:35:24.406Z,100542.14
2018-09-19T14:37:53.512Z,100547.52
2018-09-19T14:40:22.272Z,100538.59
2018-09-19T14:42:51.556Z,100542.63
2018-09-19T14:45:20.360Z,100547.16
2018-09-19T14:47:49.240Z,100540.95
2018-09-19T14:50:18.071Z,100546.81
2018-09-19T14:52:46.854Z,100541.93
2018-09-19T14:55:15.682Z,100555.37
2018-09-19T14:57:44.501Z,100542.91
2018-09-19T15:00:13.372Z,100551.83
2018-09-19T15:02:42.417Z,100552.31
2018-09-19T15:05:11.226Z,100558.55
2018-09-19T15:07:40.300Z,100560.39
2018-09-19T15:10:09.188Z,100555.53
2018-09-19T15:12:38.125Z,100554.67
2018-09-19T15:15:07.078Z,100556.35
2018-09-19T15:17:36.022Z,100562.25
2018-09-19T15:20:04.937Z,100556.88
2018-09-19T15:22:33.953Z,100558.55
2018-09-19T15:25:03.398Z,100557.21
2018-09-19T15:27:32.270Z,100554.52
2018-09-19T15:30:01.067Z,100563.59
2018-09-19T15:32:29.884Z,100560.76
2018-09-19T15:34:58.734Z,100560.39
2018-09-19T15:37:27.699Z,100559.41
2018-09-19T15:39:56.551Z,100557.58
2018-09-19T15:42:25.455Z,100551.34
2018-09-19T15:44:54.463Z,100545.11
2018-09-19T15:47:23.251Z,100539.73
2018-09-19T15:49:52.073Z,100538.37
2018-09-19T15:52:20.906Z,100540.95
2018-09-19T15:54:49.664Z,100538.75
2018-09-19T15:57:18.509Z,100532.52
2018-09-19T15:59:47.267Z,100535.57
2018-09-19T16:02:16.326Z,100533.38
2018-09-19T16:04:45.153Z,100537.41
2018-09-19T16:07:14.191Z,100528.97
2018-09-19T16:09:43.151Z,100520.41
2018-09-19T16:12:12.081Z,100523.09
2018-09-19T16:14:41.272Z,100521.27
2018-09-19T16:17:10.035Z,100524.45
2018-09-19T16:19:38.866Z,100524.45
2018-09-19T16:22:07.717Z,100527.63
2018-09-19T16:24:36.747Z,100524.45
2018-09-19T16:27:06.710Z,100515.18
2018-09-19T16:29:35.587Z,100518.70
2018-09-19T16:32:06.166Z,100518.36
2018-09-19T16:34:34.989Z,100536.33
2018-09-19T16:37:03.788Z,100528.75
2018-09-19T16:39:33.084Z,100526.06
2018-09-19T16:42:01.871Z,100519.34
2018-09-19T16:44:31.563Z,100510.41
2018-09-19T16:47:00.454Z,100513.95
2018-09-19T16:49:29.227Z,100516.28
2018-09-19T16:51:58.144Z,100508.20
2018-09-19T16:54:27.069Z,100516.80
2018-09-19T16:56:55.935Z,100521.32
2018-09-19T16:59:25.160Z,100525.84
2018-09-19T17:01:54.030Z,100521.44
2018-09-19T17:04:22.960Z,100530.85
2018-09-19T17:06:51.816Z,100544.30
2018-09-19T17:09:20.665Z,100554.57
2018-09-19T17:11:49.473Z,100559.61
2018-09-19T17:14:18.265Z,100559.24
2018-09-19T17:16:47.214Z,100560.10
2018-09-19T17:19:16.100Z,100559.73
2018-09-19T17:21:44.925Z,100565.11
2018-09-19T17:24:14.762Z,100566.94
2018-09-19T17:26:43.572Z,100570.49
2018-09-19T17:29:12.443Z,100573.67
2018-09-19T17:31:41.561Z,100564.77
2018-09-19T17:34:10.488Z,100562.08
2018-09-19T17:36:39.371Z,100562.08
2018-09-19T17:39:10.810Z,100564.89
2018-09-19T17:41:39.586Z,100561.72
2018-09-19T17:44:08.642Z,100564.41
2018-09-19T17:46:37.966Z,100569.78
2018-09-19T17:49:06.891Z,100558.54
2018-09-19T17:51:35.729Z,100555.84
2018-09-19T17:54:06.563Z,100556.33
2018-09-19T17:56:35.750Z,100557.68
2018-09-19T17:59:04.625Z,100551.81
2018-09-19T18:01:33.991Z,100547.29
2018-09-19T18:04:03.248Z,100544.60
2018-09-19T18:06:32.161Z,100540.56
2018-09-19T18:09:01.274Z,100539.22
2018-09-19T18:11:30.074Z,100543.25
2018-09-19T18:13:58.924Z,100543.25
2018-09-19T18:16:27.788Z,100544.60
2018-09-19T18:18:56.616Z,100543.25
2018-09-19T18:21:25.482Z,100548.12
2018-09-19T18:23:54.613Z,100546.28
2018-09-19T18:26:23.547Z,100544.94
2018-09-19T18:28:52.443Z,100543.74
2018-09-19T18:31:21.281Z,100547.29
2018-09-19T18:33:50.290Z,100551.33
2018-09-19T18:36:19.154Z,100542.73
2018-09-19T18:38:48.083Z,100541.39
2018-09-19T18:41:16.953Z,100539.56
2018-09-19T18:43:45.795Z,100535.67
2018-09-19T18:46:14.611Z,100533.47
2018-09-19T18:48:43.601Z,100533.84
2018-09-19T18:51:12.449Z,100524.06
2018-09-19T18:53:41.252Z,100526.75
2018-09-19T18:56:10.123Z,100525.03
2018-09-19T18:58:38.995Z,100530.41
2018-09-19T19:01:08.204Z,100529.06
2018-09-19T19:03:37.032Z,100532.62
2018-09-19T19:06:05.847Z,100517.48
2018-09-19T19:08:34.652Z,100523.36
2018-09-19T19:11:03.830Z,100524.70
2018-09-19T19:13:32.673Z,100524.33
2018-09-19T19:16:01.494Z,100527.02
2018-09-19T19:18:30.344Z,100524.81
2018-09-19T19:20:59.235Z,100527.02
2018-09-19T19:23:28.086Z,100521.30
2018-09-19T19:25:56.929Z,100522.13
2018-09-19T19:28:25.769Z,100524.48
2018-09-19T19:30:55.006Z,100524.97
2018-09-19T19:33:24.270Z,100522.28
2018-09-19T19:35:53.117Z,100516.91
2018-09-19T19:38:22.026Z,100519.22
2018-09-19T19:40:50.827Z,100513.84
2018-09-19T19:43:19.638Z,100516.53
2018-09-19T19:45:48.443Z,100520.23
2018-09-19T19:48:17.248Z,100511.30
2018-09-19T19:50:46.052Z,100515.34
2018-09-19T19:53:14.916Z,100513.50
2018-09-19T19:55:43.785Z,100519.38
2018-09-19T19:58:12.591Z,100512.28
2018-09-19T20:00:41.399Z,100509.10
2018-09-19T20:03:10.174Z,100498.34
2018-09-19T20:05:39.004Z,100496.52
2018-09-19T20:08:07.856Z,100488.93
2018-09-19T20:10:37.043Z,100484.41
2018-09-19T20:13:06.525Z,100486.24
2018-09-19T20:15:35.452Z,100490.65
2018-09-19T20:18:04.303Z,100482.21
2018-09-19T20:20:33.154Z,100482.58
2018-09-19T20:23:02.106Z,100483.06
2018-09-19T20:25:30.899Z,100483.55
2018-09-19T20:27:59.616Z,100484.26
2018-09-19T20:30:28.469Z,100482.91
2018-09-19T20:32:57.308Z,100480.23
2018-09-19T20:35:26.117Z,100475.37
2018-09-19T20:37:54.945Z,100476.19
2018-09-19T20:40:23.849Z,100470.81
2018-09-19T20:42:52.668Z,100474.84
2018-09-19T20:45:21.499Z,100478.39
2018-09-19T20:47:50.269Z,100482.43
2018-09-19T20:50:19.045Z,100472.53
2018-09-19T20:52:47.851Z,100471.18
2018-09-19T20:55:17.791Z,100455.05
2018-09-19T20:57:47.000Z,100459.45
2018-09-19T21:00:16.034Z,100461.13
2018-09-19T21:02:44.872Z,100463.33
2018-09-19T21:05:13.706Z,100460.00
2018-09-19T21:07:42.513Z,100451.81
2018-09-19T21:10:11.562Z,100451.66
2018-09-19T21:12:40.448Z,100447.47
2018-09-19T21:15:09.405Z,100456.28
2018-09-19T21:17:38.396Z,100450.75
2018-09-19T21:20:07.275Z,100449.28
2018-09-19T21:22:36.139Z,100464.89
2018-09-19T21:25:05.071Z,100462.95
2018-09-19T21:27:33.875Z,100450.69
2018-09-19T21:30:03.255Z,100452.40
2018-09-19T21:32:32.133Z,100452.40
2018-09-19T21:35:01.131Z,100457.63
2018-09-19T21:37:31.476Z,100455.79
2018-09-19T21:40:00.480Z,100452.95
2018-09-19T21:42:29.357Z,100439.00
2018-09-19T21:44:58.576Z,100441.55
2018-09-19T21:47:27.412Z,100436.69
2018-09-19T21:49:56.728Z,100446.44
2018-09-19T21:52:25.579Z,100435.55
2018-09-19T21:54:54.488Z,100435.55
2018-09-19T21:57:23.318Z,100428.83
2018-09-19T21:59:52.134Z,100425.61
2018-09-19T22:02:20.895Z,100422.92
2018-09-19T22:04:49.740Z,100422.44
2018-09-19T22:07:18.608Z,100416.20
2018-09-19T22:09:47.485Z,100409.99
2018-09-19T22:12:16.344Z,100412.04
2018-09-19T22:16:14.513Z,100407.64
2018-09-19T22:18:43.277Z,100412.31
2018-09-19T22:21:12.075Z,100405.38
2018-09-19T22:23:40.904Z,100411.13
2018-09-19T22:26:09.757Z,100413.81
2018-09-19T22:28:38.580Z,100417.33
2018-09-19T22:31:07.414Z,100416.84
2018-09-19T22:33:36.206Z,100407.91
2018-09-19T22:36:05.224Z,100406.08
2018-09-19T22:38:33.990Z,100409.14
2018-09-19T22:41:02.821Z,100412.16
2018-09-19T22:43:31.619Z,100420.23
2018-09-19T22:46:00.419Z,100411.18
2018-09-19T22:48:29.187Z,100404.95
2018-09-19T22:50:58.078Z,100411.55
2018-09-19T22:53:26.999Z,100399.78
2018-09-19T22:55:55.813Z,100403.33
2018-09-19T22:58:24.614Z,100391.58
2018-09-19T23:00:53.389Z,100376.91
2018-09-19T23:03:22.316Z,100376.78
2018-09-19T23:05:51.175Z,100378.98
2018-09-19T23:08:20.014Z,100366.88
2018-09-19T23:10:48.825Z,100373.94
2018-09-19T23:13:17.660Z,100375.65
2018-09-19T23:15:46.485Z,100362.20
2018-09-19T23:18:15.272Z,100364.03
2018-09-19T23:20:44.111Z,100359.84
2018-09-19T23:23:12.931Z,100358.48
2018-09-19T23:25:41.714Z,100350.78
2018-09-19T23:28:10.552Z,100347.39
2018-09-19T23:30:39.330Z,100346.05
2018-09-19T23:33:08.208Z,100342.02
2018-09-19T23:35:37.065Z,100340.67
2018-09-19T23:38:06.115Z,100330.24
2018-09-19T23:40:35.453Z,100320.41
2018-09-19T23:43:04.451Z,100322.33
2018-09-19T23:45:33.365Z,100321.47
2018-09-19T23:48:02.083Z,100314.91
2018-09-19T23:50:30.886Z,100312.70
2018-09-19T23:52:59.867Z,100313.55
2018-09-19T23:55:28.619Z,100312.34
2018-09-19T23:57:57.494Z,100312.86
